Terminal Aerodrome Forecast
Issued by NWS

Home | Current Version | Previous Version | Text Only | Print | Product List | Glossary On
Versions: 1 2 3 4 5 6 7 8 9 10 11 12
000
FTUS42 TJSJ 271140
TAFJMZ
TAF
TJMZ 271140Z 2712/2812 06006KT P6SM FEW025
     FM271530 07005KT P6SM SCT025
     FM271800 27010KT P6SM VCTS BKN030CB
     FM272230 07010KT P6SM FEW025
      AMD NOT SKED=

USA.gov is the U.S. government's official web portal to all federal, state and local government web resources and services.